Time;durP1;ratioP1;P1;durP2;ratioP2;P2;SDS_P1;SDS_P2;PMS_P1;PMS_P2;Temp;Humidity;BMP_temperature;BMP_pressure;BME280_temperature;BME280_humidity;BME280_pressure;Samples;Min_cycle;Max_cycle;Signal;HPM_P1;HPM_P2
2023/04/01 00:01:03;;;;;;;24.18;15.13;;;;;;;9.00;100.00;98346.59;1788008;80;25898;-66
2023/04/01 00:03:31;;;;;;;27.67;14.40;;;;;;;9.00;100.00;98339.85;1788169;80;25441;-66
2023/04/01 00:06:00;;;;;;;24.52;15.48;;;;;;;8.99;100.00;98342.34;1788063;80;25892;-66
2023/04/01 00:08:28;;;;;;;30.10;15.85;;;;;;;9.00;100.00;98336.38;1788226;80;25476;-65
2023/04/01 00:10:56;;;;;;;23.77;14.38;;;;;;;8.99;100.00;98335.61;1788070;80;27523;-65
2023/04/01 00:13:26;;;;;;;21.10;14.73;;;;;;;8.98;100.00;98326.71;1788002;80;25441;-65
2023/04/01 00:15:55;;;;;;;31.35;15.70;;;;;;;9.00;100.00;98326.94;1787635;80;25550;-66
2023/04/01 00:18:23;;;;;;;19.57;13.83;;;;;;;8.98;100.00;98329.41;1787567;80;32333;-65
2023/04/01 00:20:52;;;;;;;22.58;14.25;;;;;;;8.97;100.00;98327.86;1787530;80;25408;-65
2023/04/01 00:23:20;;;;;;;29.07;16.35;;;;;;;8.98;100.00;98329.98;1787615;80;27520;-66
2023/04/01 00:25:48;;;;;;;25.65;16.77;;;;;;;9.00;100.00;98324.25;1787441;80;25387;-65
2023/04/01 00:28:17;;;;;;;28.60;15.38;;;;;;;8.97;100.00;98323.02;1787454;80;25397;-65
2023/04/01 00:30:45;;;;;;;24.55;15.85;;;;;;;8.96;100.00;98315.50;1787578;80;25827;-65
2023/04/01 00:33:12;;;;;;;26.85;16.00;;;;;;;8.94;100.00;98307.55;1787536;80;25624;-65
2023/04/01 00:35:39;;;;;;;24.75;15.48;;;;;;;8.96;100.00;98312.02;1787470;80;27568;-65
2023/04/01 00:38:06;;;;;;;21.50;14.78;;;;;;;8.97;100.00;98314.38;1787400;80;25448;-65
2023/04/01 00:40:41;;;;;;;26.35;15.20;;;;;;;8.98;100.00;98305.72;1787465;80;25463;-66
2023/04/01 00:43:17;;;;;;;23.90;15.65;;;;;;;9.00;100.00;98304.02;1787425;80;25404;-66
2023/04/01 00:45:47;;;;;;;23.45;14.58;;;;;;;8.98;100.00;98297.05;1787551;80;25578;-66
2023/04/01 00:48:21;;;;;;;24.75;15.90;;;;;;;9.00;100.00;98295.94;1787493;80;28126;-66
2023/04/01 00:50:55;;;;;;;22.90;15.10;;;;;;;9.00;100.00;98290.54;1787419;80;25549;-66
2023/04/01 00:53:23;;;;;;;30.97;15.75;;;;;;;9.02;100.00;98295.79;1787529;80;25550;-66
2023/04/01 00:55:57;;;;;;;28.10;16.42;;;;;;;9.03;100.00;98295.25;1787438;80;25662;-66
2023/04/01 00:58:26;;;;;;;30.77;16.70;;;;;;;9.02;100.00;98297.71;1787488;80;25629;-66
2023/04/01 01:00:55;;;;;;;28.77;16.45;;;;;;;9.01;100.00;98302.33;1787608;80;27463;-66
2023/04/01 01:03:21;;;;;;;31.82;17.27;;;;;;;9.01;100.00;98302.88;1790136;80;25767;-66
2023/04/01 01:05:59;;;;;;;27.48;16.52;;;;;;;9.00;100.00;98312.11;1793294;80;25440;-66
2023/04/01 01:08:43;;;;;;;32.53;17.62;;;;;;;8.98;100.00;98311.88;1764357;80;25804;-66
2023/04/01 01:11:12;;;;;;;28.42;17.42;;;;;;;8.97;100.00;98306.29;1820673;78;25562;-66
2023/04/01 01:13:55;;;;;;;27.37;17.10;;;;;;;8.96;100.00;98311.45;1793524;80;27584;-66
2023/04/01 01:16:33;;;;;;;29.65;17.40;;;;;;;8.95;100.00;98311.22;1792381;80;25621;-66
2023/04/01 01:19:32;;;;;;;26.35;16.85;;;;;;;8.94;100.00;98310.25;1793330;80;25565;-67
2023/04/01 01:22:13;;;;;;;29.72;17.75;;;;;;;8.94;100.00;98306.97;1793203;80;25549;-66
2023/04/01 01:24:54;;;;;;;26.20;17.82;;;;;;;8.95;100.00;98305.05;1763366;80;25473;-67
2023/04/01 01:27:23;;;;;;;30.85;18.30;;;;;;;8.95;100.00;98302.36;1793354;80;27456;-65
2023/04/01 01:30:20;;;;;;;29.60;17.45;;;;;;;8.93;100.00;98310.79;1793313;80;25604;-67
2023/04/01 01:33:14;;;;;;;28.20;16.30;;;;;;;8.94;100.00;98306.20;1793300;80;25460;-66
2023/04/01 01:35:57;;;;;;;30.23;18.32;;;;;;;8.92;100.00;98302.50;1764057;80;25657;-66
2023/04/01 01:38:28;;;;;;;27.93;16.80;;;;;;;8.89;100.00;98297.02;1793314;80;25400;-66
2023/04/01 01:40:57;;;;;;;31.68;18.90;;;;;;;8.89;100.00;98301.84;1793290;80;27541;-65
2023/04/01 01:43:41;;;;;;;28.95;17.62;;;;;;;8.89;100.00;98308.58;1793153;80;25758;-66
2023/04/01 01:46:21;;;;;;;31.95;18.98;;;;;;;8.88;100.00;98311.05;1792958;80;25396;-65
2023/04/01 01:48:50;;;;;;;33.28;18.37;;;;;;;8.88;100.00;98311.05;1793302;80;25386;-65
2023/04/01 01:51:21;;;;;;;25.50;16.45;;;;;;;8.87;100.00;98301.41;1764443;80;25430;-65
2023/04/01 01:53:47;;;;;;;27.65;17.25;;;;;;;8.85;100.00;98310.95;1764131;80;28899;-65
2023/04/01 01:56:13;;;;;;;32.53;18.62;;;;;;;8.84;100.00;98307.48;1793224;80;25747;-65
2023/04/01 01:58:45;;;;;;;36.55;16.50;;;;;;;8.82;100.00;98301.66;1793229;80;25178;-65
2023/04/01 02:01:19;;;;;;;30.45;16.95;;;;;;;8.78;100.00;98298.88;1793283;80;25606;-65
2023/04/01 02:03:47;;;;;;;35.00;17.15;;;;;;;8.79;100.00;98299.65;1790241;80;25431;-66
2023/04/01 02:06:18;;;;;;;29.32;17.15;;;;;;;8.78;100.00;98300.22;1787410;80;27554;-66
2023/04/01 02:09:02;;;;;;;30.25;18.02;;;;;;;8.77;100.00;98293.83;1787310;80;25607;-66
2023/04/01 02:11:49;;;;;;;32.30;18.30;;;;;;;8.76;100.00;98298.98;1787477;80;25420;-66
2023/04/01 02:14:24;;;;;;;31.20;16.55;;;;;;;8.73;100.00;98296.40;1787384;80;25546;-66
2023/04/01 02:16:58;;;;;;;34.85;19.52;;;;;;;8.70;100.00;98295.77;1787435;80;25570;-66
2023/04/01 02:19:30;;;;;;;34.30;19.67;;;;;;;8.69;100.00;98290.72;1786866;80;28278;-66
2023/04/01 02:22:01;;;;;;;33.65;19.20;;;;;;;8.67;100.00;98289.71;1787317;80;25383;-66
2023/04/01 02:24:31;;;;;;;39.40;22.15;;;;;;;8.66;100.00;98288.70;1787357;80;25578;-66
2023/04/01 02:26:59;;;;;;;35.40;21.77;;;;;;;8.63;100.00;98284.00;1787377;80;25526;-65
2023/04/01 02:29:25;;;;;;;43.38;22.25;;;;;;;8.62;100.00;98277.06;1787415;80;25410;-65
2023/04/01 02:31:54;;;;;;;36.28;22.42;;;;;;;8.62;100.00;98275.71;1787386;80;27538;-65
2023/04/01 02:34:23;;;;;;;37.35;22.52;;;;;;;8.62;100.00;98273.80;1787293;80;25227;-65
2023/04/01 02:36:51;;;;;;;37.35;20.97;;;;;;;8.62;100.00;98267.62;1787505;80;25392;-65
2023/04/01 02:39:19;;;;;;;37.10;21.27;;;;;;;8.60;100.00;98262.01;1787345;80;25400;-65
2023/04/01 02:41:46;;;;;;;37.80;21.85;;;;;;;8.60;100.00;98272.78;1787400;80;25601;-65
2023/04/01 02:44:15;;;;;;;37.80;20.00;;;;;;;8.60;100.00;98272.02;1787337;80;29714;-65
2023/04/01 02:46:41;;;;;;;35.27;19.73;;;;;;;8.60;100.00;98261.23;1787521;80;25642;-65
2023/04/01 02:49:09;;;;;;;38.23;19.10;;;;;;;8.58;100.00;98264.81;1787388;80;25577;-65
2023/04/01 02:51:35;;;;;;;34.58;19.25;;;;;;;8.56;100.00;98264.38;1787370;80;25697;-65
2023/04/01 02:54:02;;;;;;;33.53;19.05;;;;;;;8.52;100.00;98265.64;1787423;80;25605;-65
2023/04/01 02:56:29;;;;;;;32.48;18.85;;;;;;;8.51;100.00;98265.44;1787377;80;27457;-65
2023/04/01 02:58:56;;;;;;;35.13;19.55;;;;;;;8.50;100.00;98266.55;1787273;80;25370;-65
2023/04/01 03:01:23;;;;;;;32.08;19.17;;;;;;;8.49;100.00;98262.85;1756571;80;25560;-66
2023/04/01 03:03:51;;;;;;;28.80;18.70;;;;;;;8.48;100.00;98275.55;1772884;80;25875;-66
2023/04/01 03:06:18;;;;;;;28.27;18.00;;;;;;;8.48;100.00;98270.16;1771902;81;25626;-66
2023/04/01 03:08:45;;;;;;;32.33;18.67;;;;;;;8.46;100.00;98281.05;1771645;81;28091;-66
2023/04/01 03:11:13;;;;;;;32.13;19.02;;;;;;;8.43;100.00;98278.48;1771558;81;25922;-66
2023/04/01 03:13:39;;;;;;;33.75;18.52;;;;;;;8.41;100.00;98280.15;1771632;81;25634;-66
2023/04/01 03:16:06;;;;;;;36.77;19.98;;;;;;;8.41;100.00;98276.11;1771591;81;25536;-66
2023/04/01 03:18:33;;;;;;;33.75;19.23;;;;;;;8.43;100.00;98279.03;1743317;81;25502;-66
2023/04/01 03:21:19;;;;;;;34.98;20.32;;;;;;;8.44;100.00;98281.38;1771622;81;28249;-67
2023/04/01 03:23:46;;;;;;;34.45;18.73;;;;;;;8.44;100.00;98278.69;1771501;81;25462;-66
2023/04/01 03:26:13;;;;;;;35.00;19.00;;;;;;;8.43;100.00;98281.73;1771575;81;25618;-66
2023/04/01 03:28:39;;;;;;;33.45;19.57;;;;;;;8.40;100.00;98285.30;1771670;81;26114;-66
2023/04/01 03:31:06;;;;;;;34.05;19.98;;;;;;;8.39;100.00;98297.22;1771673;81;25420;-66
2023/04/01 03:33:33;;;;;;;34.80;18.77;;;;;;;8.38;100.00;98290.83;1771637;81;27464;-66
2023/04/01 03:36:00;;;;;;;38.10;20.27;;;;;;;8.36;100.00;98293.86;1771516;81;25630;-66
2023/04/01 03:38:27;;;;;;;36.77;21.17;;;;;;;8.38;100.00;98297.56;1743036;81;25630;-67
2023/04/01 03:40:53;;;;;;;32.93;18.92;;;;;;;8.38;100.00;98300.26;1771542;81;25543;-66
2023/04/01 03:43:20;;;;;;;36.23;20.80;;;;;;;8.37;100.00;98299.45;1771617;81;25555;-67
2023/04/01 03:45:50;;;;;;;37.38;20.48;;;;;;;8.37;100.00;98295.98;1771621;81;27524;-66
2023/04/01 03:48:17;;;;;;;41.02;21.68;;;;;;;8.37;100.00;98312.14;1771538;81;25698;-66
2023/04/01 03:50:45;;;;;;;35.05;21.80;;;;;;;8.36;100.00;98312.72;1771752;81;25600;-66
2023/04/01 03:53:11;;;;;;;40.03;22.45;;;;;;;8.38;100.00;98309.69;1771736;81;26138;-66
2023/04/01 03:55:39;;;;;;;40.85;23.30;;;;;;;8.38;100.00;98310.46;1771782;81;25497;-66
2023/04/01 03:58:07;;;;;;;41.73;22.48;;;;;;;8.40;100.00;98313.59;1771757;81;27508;-67
2023/04/01 04:00:35;;;;;;;43.75;24.00;;;;;;;8.41;100.00;98319.75;1771681;81;25547;-67
2023/04/01 04:03:01;;;;;;;40.40;23.42;;;;;;;8.43;100.00;98323.48;1771723;81;25495;-67
2023/04/01 04:05:28;;;;;;;38.95;24.05;;;;;;;8.44;100.00;98323.14;1784080;80;25542;-66
2023/04/01 04:07:55;;;;;;;45.00;25.55;;;;;;;8.45;100.00;98325.30;1784980;80;25446;-66
2023/04/01 04:10:23;;;;;;;42.35;23.90;;;;;;;8.47;100.00;98327.08;1759286;81;27440;-66
2023/04/01 04:12:51;;;;;;;53.87;25.85;;;;;;;8.47;100.00;98331.13;1749519;80;25506;-66
2023/04/01 04:15:19;;;;;;;41.75;23.55;;;;;;;8.47;100.00;98331.90;1759581;81;25612;-66
2023/04/01 04:17:47;;;;;;;40.23;22.02;;;;;;;8.46;100.00;98328.97;1776102;80;26237;-66
2023/04/01 04:20:14;;;;;;;40.52;22.58;;;;;;;8.48;100.00;98340.21;1759317;81;25539;-66
2023/04/01 04:22:41;;;;;;;42.08;23.07;;;;;;;8.48;100.00;98339.41;1749625;80;28553;-66
2023/04/01 04:25:09;;;;;;;38.45;23.05;;;;;;;8.46;100.00;98332.23;1759154;81;25548;-66
2023/04/01 04:27:35;;;;;;;43.17;23.00;;;;;;;8.47;100.00;98337.28;1749702;80;25607;-66
2023/04/01 04:30:03;;;;;;;40.23;23.60;;;;;;;8.47;100.00;98331.13;1759193;81;25554;-66
2023/04/01 04:32:30;;;;;;;37.60;23.10;;;;;;;8.48;100.00;98336.17;1776153;80;25578;-66
2023/04/01 04:34:57;;;;;;;43.48;22.58;;;;;;;8.49;100.00;98342.34;1731394;81;27493;-67
2023/04/01 04:37:25;;;;;;;39.92;22.77;;;;;;;8.49;100.00;98340.98;1776014;80;25377;-67
2023/04/01 04:39:52;;;;;;;42.88;23.90;;;;;;;8.50;100.00;98343.91;1759258;81;25457;-67
2023/04/01 04:42:19;;;;;;;40.88;21.90;;;;;;;8.49;100.00;98347.16;1776075;80;25568;-67
2023/04/01 04:44:45;;;;;;;38.35;22.87;;;;;;;8.49;100.00;98349.84;1731402;81;25590;-67
2023/04/01 04:47:12;;;;;;;40.92;21.97;;;;;;;8.50;100.00;98351.42;1776120;80;27645;-67
2023/04/01 04:49:38;;;;;;;42.98;22.35;;;;;;;8.52;100.00;98352.44;1759184;81;25415;-67
2023/04/01 04:52:04;;;;;;;38.38;22.22;;;;;;;8.53;100.00;98348.05;1776087;80;25580;-67
2023/04/01 04:54:30;;;;;;;41.83;22.58;;;;;;;8.52;100.00;98347.05;1759233;81;25597;-67
2023/04/01 04:56:57;;;;;;;42.13;22.60;;;;;;;8.50;100.00;98344.69;1776131;80;25587;-67
2023/04/01 04:59:23;;;;;;;39.05;21.37;;;;;;;8.51;100.00;98349.51;1759214;81;27551;-66
2023/04/01 05:01:50;;;;;;;39.80;21.65;;;;;;;8.53;100.00;98352.09;1749667;80;25462;-66
2023/04/01 05:04:16;;;;;;;38.98;22.45;;;;;;;8.54;100.00;98354.22;1767827;80;25606;-66
2023/04/01 05:06:44;;;;;;;40.00;22.42;;;;;;;8.54;100.00;98349.61;1819676;78;25517;-66
2023/04/01 05:09:11;;;;;;;39.18;22.13;;;;;;;8.57;100.00;98357.01;1787470;80;25493;-66
2023/04/01 05:11:37;;;;;;;33.98;20.85;;;;;;;8.56;100.00;98359.50;1787380;80;27580;-66
2023/04/01 05:14:04;;;;;;;40.10;21.73;;;;;;;8.56;100.00;98360.05;1787291;80;25624;-66
2023/04/01 05:16:31;;;;;;;39.88;21.15;;;;;;;8.57;100.00;98358.36;1787405;80;25544;-66
2023/04/01 05:18:57;;;;;;;33.83;20.15;;;;;;;8.58;100.00;98365.87;1787357;80;26309;-67
2023/04/01 05:21:23;;;;;;;35.98;19.90;;;;;;;8.57;100.00;98361.05;1787458;80;32285;-67
2023/04/01 05:23:50;;;;;;;33.83;19.12;;;;;;;8.58;100.00;98365.33;1787389;80;27505;-67
2023/04/01 05:26:16;;;;;;;37.15;19.70;;;;;;;8.61;100.00;98367.88;1787284;80;25448;-67
2023/04/01 05:28:43;;;;;;;31.05;18.57;;;;;;;8.65;100.00;98369.33;1787416;80;25618;-67
2023/04/01 05:31:11;;;;;;;30.15;18.65;;;;;;;8.65;100.00;98365.28;1787310;80;26216;-67
2023/04/01 05:33:37;;;;;;;32.38;17.65;;;;;;;8.68;100.00;98366.73;1787452;80;25620;-67
2023/04/01 05:36:16;;;;;;;29.67;18.77;;;;;;;8.68;100.00;98372.69;1787432;80;27568;-67
2023/04/01 05:38:45;;;;;;;30.15;16.90;;;;;;;8.68;100.00;98357.30;1787559;80;25577;-68
2023/04/01 05:41:12;;;;;;;;;;;;;;;8.70;100.00;98363.70;1790061;80;25373;-68
2023/04/01 05:43:40;;;;;;;24.27;14.03;;;;;;;8.71;100.00;98362.58;1819598;78;25605;-68
2023/04/01 05:46:08;;;;;;;27.87;15.15;;;;;;;8.71;100.00;98365.27;1787424;80;25562;-67
2023/04/01 05:48:35;;;;;;;24.77;15.93;;;;;;;8.72;100.00;98370.32;1819687;78;27562;-67
2023/04/01 05:51:04;;;;;;;20.97;15.20;;;;;;;8.71;100.00;98371.44;1787329;80;25622;-67
2023/04/01 05:53:31;;;;;;;21.07;14.53;;;;;;;8.71;100.00;98373.36;1787635;80;25475;-67
2023/04/01 05:56:03;;;;;;;22.65;15.05;;;;;;;8.71;100.00;98371.44;1787343;80;26459;-67
2023/04/01 05:58:31;;;;;;;24.40;14.15;;;;;;;8.75;100.00;98372.34;1787473;80;25554;-67
2023/04/01 06:01:05;;;;;;;20.15;12.75;;;;;;;8.79;100.00;98373.78;1787359;80;28041;-67
2023/04/01 06:03:32;;;;;;;21.07;13.58;;;;;;;8.79;100.00;98380.52;1787330;80;25658;-69
2023/04/01 06:05:58;;;;;;;17.55;12.50;;;;;;;8.82;100.00;98383.08;1787291;80;25603;-67
2023/04/01 06:08:25;;;;;;;18.60;12.95;;;;;;;8.84;100.00;98381.62;1787311;80;25644;-68
2023/04/01 06:11:30;;;;;;;20.92;13.38;;;;;;;8.85;100.00;98381.83;1787372;80;25629;-68
2023/04/01 06:14:05;;;;;;;19.25;11.68;;;;;;;8.86;100.00;98382.63;1786923;80;27580;-68
2023/04/01 06:16:51;;;;;;;20.32;12.28;;;;;;;8.89;100.00;98388.11;1786887;80;25884;-69
2023/04/01 06:19:43;;;;;;;19.80;12.70;;;;;;;8.95;100.00;98385.95;1787406;80;25544;-67
2023/04/01 06:22:39;;;;;;;21.20;13.38;;;;;;;8.99;100.00;98389.54;1756636;80;25563;-70
2023/04/01 06:25:23;;;;;;;21.57;12.93;;;;;;;9.06;100.00;98384.87;1681497;85;25554;-68
2023/04/01 06:28:09;;;;;;;19.23;13.22;;;;;;;9.31;100.00;98386.33;1681503;85;27535;-69
2023/04/01 06:31:05;;;;;;;19.40;12.82;;;;;;;9.57;100.00;98394.48;1743186;82;25452;-68
2023/04/01 06:33:55;;;;;;;17.23;11.10;;;;;;;9.79;100.00;98388.23;1743197;82;25516;-69
2023/04/01 06:36:56;;;;;;;18.52;11.50;;;;;;;10.13;100.00;98394.83;1743368;81;26090;-69
2023/04/01 06:39:40;;;;;;;17.45;10.40;;;;;;;10.26;100.00;98398.95;1700022;83;25638;-70
2023/04/01 06:42:30;;;;;;;16.12;10.85;;;;;;;10.26;100.00;98398.17;1743327;82;27586;-70
2023/04/01 06:45:26;;;;;;;16.75;9.95;;;;;;;10.30;100.00;98386.89;1695714;84;25539;-72
2023/04/01 06:48:27;;;;;;;14.45;9.00;;;;;;;10.31;100.00;98389.80;1728648;83;25531;-71
2023/04/01 06:51:28;;;;;;;14.33;9.78;;;;;;;10.28;100.00;98387.80;1728571;83;25589;-69
2023/04/01 06:54:33;;;;;;;13.80;8.65;;;;;;;10.27;100.00;98385.67;1728618;83;25433;-70
2023/04/01 06:57:05;;;;;;;13.88;9.75;;;;;;;10.24;100.00;98385.59;1727127;83;27498;-70
2023/04/01 06:59:35;;;;;;;16.97;10.38;;;;;;;10.20;99.76;98386.88;1783191;78;25450;-71
2023/04/01 07:02:13;;;;;;;17.37;10.55;;;;;;;10.15;99.22;98391.75;1740946;81;25523;-71
2023/04/01 07:04:47;;;;;;;15.25;10.35;;;;;;;10.09;99.04;98384.48;1821285;78;25618;-68
2023/04/01 07:07:31;;;;;;;16.90;10.40;;;;;;;10.05;98.87;98385.77;1754562;81;25718;-70
2023/04/01 07:10:03;;;;;;;14.73;9.58;;;;;;;10.07;100.00;98383.48;1822595;78;27538;-69
2023/04/01 07:12:54;;;;;;;19.20;10.45;;;;;;;10.17;100.00;98389.50;1755389;81;27370;-68
2023/04/01 07:15:33;;;;;;;14.30;10.60;;;;;;;10.21;100.00;98387.07;1822904;78;25648;-69
2023/04/01 07:18:17;;;;;;;15.50;10.82;;;;;;;10.34;100.00;98384.30;1755528;81;25864;-68
2023/04/01 07:20:45;;;;;;;19.25;10.85;;;;;;;10.45;100.00;98379.88;1759181;80;25480;-69
2023/04/01 07:23:35;;;;;;;15.00;10.18;;;;;;;10.64;100.00;98378.55;1819615;78;27026;-69
2023/04/01 07:26:22;;;;;;;21.73;11.22;;;;;;;10.70;100.00;98380.97;1787043;80;25602;-70
2023/04/01 07:28:52;;;;;;;21.33;12.68;;;;;;;10.71;100.00;98381.97;1819818;78;25512;-70
2023/04/01 07:31:43;;;;;;;20.97;12.35;;;;;;;10.76;98.86;98387.64;1787498;80;26035;-71
2023/04/01 07:34:26;;;;;;;20.37;13.60;;;;;;;10.78;98.45;98388.87;1819853;78;25451;-70
2023/04/01 07:37:19;;;;;;;17.35;12.80;;;;;;;10.76;97.14;98389.80;1756727;80;28015;-70
2023/04/01 07:40:21;;;;;;;20.60;12.10;;;;;;;10.72;95.64;98393.56;1819701;78;25371;-69
2023/04/01 07:43:13;;;;;;;18.98;12.70;;;;;;;10.68;96.70;98388.09;1651789;86;25897;-71
2023/04/01 07:46:06;;;;;;;17.00;11.40;;;;;;;10.64;95.63;98389.38;1661395;86;25621;-70
2023/04/01 07:48:47;;;;;;;18.15;12.18;;;;;;;10.64;96.07;98382.61;1660868;86;25468;-69
2023/04/01 07:51:42;;;;;;;17.25;11.53;;;;;;;10.75;97.69;98387.45;1661522;86;28138;-71
2023/04/01 07:54:28;;;;;;;14.00;10.30;;;;;;;10.79;97.38;98390.99;1660955;86;25786;-71
2023/04/01 07:57:09;;;;;;;15.72;11.55;;;;;;;10.73;95.05;98387.03;1661397;86;25628;-71
2023/04/01 07:59:51;;;;;;;14.40;9.95;;;;;;;10.71;95.11;98392.79;1661408;86;25558;-70
2023/04/01 08:02:45;;;;;;;12.23;9.08;;;;;;;10.69;95.03;98388.86;1654154;86;25648;-70
2023/04/01 08:05:32;;;;;;;13.50;9.38;;;;;;;10.62;94.73;98386.80;1661291;86;27572;-72
2023/04/01 08:08:25;;;;;;;13.68;9.15;;;;;;;10.68;94.92;98395.42;1660694;86;25584;-72
2023/04/01 08:11:17;;;;;;;15.35;10.15;;;;;;;10.73;94.44;98401.91;1661334;86;25631;-70
2023/04/01 08:14:11;;;;;;;13.50;9.23;;;;;;;10.78;93.46;98397.56;1661265;86;26380;-69
2023/04/01 08:17:09;;;;;;;16.00;11.10;;;;;;;10.85;93.84;98407.16;1660897;85;25453;-73
2023/04/01 08:19:51;;;;;;;19.50;12.50;;;;;;;10.85;93.53;98400.40;1695312;82;27712;-73
2023/04/01 08:22:24;;;;;;;19.10;12.80;;;;;;;10.96;94.87;98401.37;1701066;82;25500;-71
2023/04/01 08:24:52;;;;;;;19.32;13.05;;;;;;;11.36;97.79;98406.17;1731427;82;25465;-72
2023/04/01 08:27:42;;;;;;;21.57;14.18;;;;;;;11.53;95.65;98399.50;1733253;82;25581;-71
2023/04/01 08:30:25;;;;;;;19.67;13.80;;;;;;;11.67;94.20;98401.08;1733332;82;25640;-70
2023/04/01 08:33:05;;;;;;;19.02;13.40;;;;;;;11.71;92.47;98405.20;1731965;82;27141;-71
2023/04/01 08:35:43;;;;;;;19.60;13.72;;;;;;;11.66;91.20;98402.80;1731528;82;25770;-70
2023/04/01 08:38:30;;;;;;;19.45;12.55;;;;;;;11.59;90.60;98408.32;1732914;82;25493;-71
2023/04/01 08:41:11;;;;;;;18.20;11.20;;;;;;;11.57;88.40;98411.16;1733045;82;25645;-69
2023/04/01 08:44:19;;;;;;;14.65;10.88;;;;;;;11.58;90.62;98413.52;1732418;81;25865;-68
2023/04/01 08:47:06;;;;;;;13.83;10.13;;;;;;;11.71;90.56;98417.38;1732093;82;29699;-69
2023/04/01 08:49:50;;;;;;;15.40;10.88;;;;;;;11.71;88.73;98408.70;1732148;82;25682;-68
2023/04/01 08:52:51;;;;;;;14.60;10.25;;;;;;;11.70;87.98;98414.48;1730996;82;25812;-68
2023/04/01 08:55:38;;;;;;;14.58;10.00;;;;;;;11.68;88.21;98416.20;1704953;82;25982;-67
2023/04/01 08:58:32;;;;;;;14.95;9.58;;;;;;;11.66;87.64;98409.56;1732351;82;25668;-68
2023/04/01 09:01:28;;;;;;;11.48;9.20;;;;;;;11.59;86.61;98419.70;1733235;82;27518;-68
2023/04/01 09:04:25;;;;;;;14.63;10.90;;;;;;;11.54;87.15;98428.12;1732058;82;25562;-68
2023/04/01 09:07:17;;;;;;;19.48;12.18;;;;;;;11.47;86.61;98423.37;1704777;82;25603;-71
2023/04/01 09:10:25;;;;;;;18.62;11.75;;;;;;;11.39;86.81;98424.38;1732277;82;25542;-71
2023/04/01 09:13:47;;;;;;;17.95;11.63;;;;;;;11.35;87.18;98423.55;1733333;82;25600;-71
2023/04/01 09:16:35;;;;;;;17.62;11.33;;;;;;;11.36;86.94;98421.06;1733270;82;27569;-71
2023/04/01 09:19:10;;;;;;;20.85;14.90;;;;;;;11.35;86.97;98428.38;1732681;82;25912;-71
2023/04/01 09:22:00;;;;;;;14.83;9.38;;;;;;;11.28;86.68;98432.31;1731372;82;25396;-72
2023/04/01 09:24:50;;;;;;;13.38;8.93;;;;;;;11.20;85.20;98434.12;1733396;82;25551;-71
2023/04/01 09:27:57;;;;;;;14.25;9.23;;;;;;;11.03;85.25;98431.29;1730523;82;25483;-70
2023/04/01 09:30:45;;;;;;;13.68;9.03;;;;;;;10.93;85.41;98436.47;1733243;82;27059;-71
2023/04/01 09:33:55;;;;;;;11.60;8.35;;;;;;;10.85;86.38;98428.80;1733264;82;25422;-72
2023/04/01 09:36:26;;;;;;;16.23;8.05;;;;;;;10.84;86.47;98432.63;1733384;82;25721;-66
2023/04/01 09:39:01;;;;;;;11.05;7.47;;;;;;;10.87;86.70;98435.98;1733175;82;25617;-66
2023/04/01 09:42:01;;;;;;;12.63;6.78;;;;;;;10.89;86.10;98441.03;1730393;82;25407;-64
2023/04/01 09:44:35;;;;;;;9.03;6.78;;;;;;;10.99;84.75;98440.47;1724190;83;27167;-65
2023/04/01 09:47:57;;;;;;;8.33;6.62;;;;;;;11.11;85.78;98435.48;1724959;82;26014;-64
2023/04/01 09:50:53;;;;;;;9.18;6.33;;;;;;;11.22;86.76;98431.06;1722860;83;26038;-65
2023/04/01 09:54:03;;;;;;;9.55;5.83;;;;;;;11.36;85.20;98427.25;1659212;86;26111;-65
2023/04/01 09:57:02;;;;;;;11.85;6.10;;;;;;;11.35;83.80;98433.80;1660506;86;25685;-64
2023/04/01 10:00:17;;;;;;;6.50;5.08;;;;;;;11.29;84.02;98437.14;1660441;86;27694;-64
2023/04/01 10:03:20;;;;;;;7.55;5.85;;;;;;;11.20;83.56;98439.53;1660378;86;25775;-65
2023/04/01 10:06:22;;;;;;;10.65;5.87;;;;;;;11.18;84.65;98445.08;1660755;86;25646;-66
2023/04/01 10:09:12;;;;;;;7.60;5.72;;;;;;;11.20;85.35;98450.91;1660749;86;25640;-65
2023/04/01 10:11:55;;;;;;;7.87;4.90;;;;;;;11.16;83.96;98458.19;1660926;86;25608;-65
2023/04/01 10:14:42;;;;;;;9.48;5.33;;;;;;;11.09;84.17;98461.53;1660817;86;27471;-65
2023/04/01 10:17:48;;;;;;;6.42;5.28;;;;;;;11.05;84.40;98457.98;1660748;86;25692;-64
2023/04/01 10:20:39;;;;;;;8.40;6.47;;;;;;;11.01;84.58;98459.24;1660783;86;25725;-65
2023/04/01 10:23:24;;;;;;;10.35;7.15;;;;;;;10.96;85.79;98460.11;1660570;85;25614;-64
2023/04/01 10:26:12;;;;;;;11.85;7.97;;;;;;;10.91;85.50;98463.09;1651610;85;25537;-65
2023/04/01 10:29:10;;;;;;;12.18;8.00;;;;;;;10.84;86.10;98467.78;1661108;86;27491;-64
2023/04/01 10:31:48;;;;;;;8.90;6.37;;;;;;;10.80;86.64;98473.12;1723492;83;25394;-64
2023/04/01 10:34:39;;;;;;;6.70;4.78;;;;;;;10.80;87.44;98475.83;1723554;83;25570;-64
2023/04/01 10:37:41;;;;;;;6.58;4.65;;;;;;;10.70;86.75;98476.39;1721027;82;26557;-65
2023/04/01 10:40:40;;;;;;;7.83;4.65;;;;;;;10.68;87.36;98466.50;1660518;86;25677;-63
2023/04/01 10:43:44;;;;;;;6.22;4.20;;;;;;;10.57;86.97;98470.34;1642590;85;27767;-64
2023/04/01 10:46:54;;;;;;;5.53;4.33;;;;;;;10.56;87.70;98475.52;1638463;87;25565;-64
2023/04/01 10:49:50;;;;;;;6.05;4.05;;;;;;;10.53;87.64;98476.79;1638056;87;25628;-64
2023/04/01 10:52:46;;;;;;;5.42;4.00;;;;;;;10.52;88.29;98467.10;1637617;87;25581;-64
2023/04/01 10:55:43;;;;;;;6.30;3.83;;;;;;;10.58;88.64;98473.81;1638567;87;25574;-63
2023/04/01 10:58:57;;;;;;;5.37;4.10;;;;;;;10.59;88.64;98468.61;1638534;87;27525;-63
2023/04/01 11:01:54;;;;;;;6.65;4.45;;;;;;;10.61;88.95;98467.70;1638451;87;25764;-64
2023/04/01 11:05:09;;;;;;;5.65;3.95;;;;;;;10.68;89.78;98470.55;1636729;87;25827;-65
2023/04/01 11:08:02;;;;;;;4.78;3.95;;;;;;;10.73;89.13;98470.86;1599615;89;25887;-64
2023/04/01 11:11:17;;;;;;;6.97;4.60;;;;;;;10.77;88.86;98473.83;1599754;89;25667;-64
2023/04/01 11:14:22;;;;;;;8.03;5.00;;;;;;;10.81;89.17;98473.35;1547951;92;28410;-63
2023/04/01 11:17:24;;;;;;;8.05;5.22;;;;;;;10.98;89.94;98472.16;1576354;89;27387;-63
2023/04/01 11:20:11;;;;;;;6.92;5.03;;;;;;;11.21;92.00;98472.20;1599824;89;25656;-63
2023/04/01 11:23:18;;;;;;;9.08;4.92;;;;;;;11.53;89.98;98462.55;1557876;92;25708;-63
2023/04/01 11:26:19;;;;;;;10.70;6.37;;;;;;;11.88;89.74;98470.29;1557965;92;25545;-64
2023/04/01 11:29:17;;;;;;;7.72;5.42;;;;;;;12.40;89.45;98471.52;1557982;92;27567;-64
2023/04/01 11:31:48;;;;;;;6.50;4.58;;;;;;;12.86;87.86;98466.52;1556348;92;25481;-63
2023/04/01 11:34:32;;;;;;;10.28;4.80;;;;;;;13.16;84.80;98469.22;1557946;92;25474;-64
2023/04/01 11:37:26;;;;;;;6.97;4.00;;;;;;;13.20;84.07;98470.61;1558022;92;25591;-63
2023/04/01 11:40:16;;;;;;;7.47;5.03;;;;;;;13.22;82.20;98476.45;1579683;90;25546;-63
2023/04/01 11:43:09;;;;;;;5.95;4.22;;;;;;;13.04;80.06;98468.89;1558321;91;27515;-64
2023/04/01 11:46:01;;;;;;;5.47;4.17;;;;;;;12.88;79.84;98462.28;1565744;91;25672;-63
2023/04/01 11:48:59;;;;;;;4.72;3.60;;;;;;;12.86;79.76;98471.37;1578628;90;25772;-64
2023/04/01 11:52:05;;;;;;;6.17;4.50;;;;;;;13.01;80.51;98464.77;1583761;90;25697;-65
2023/04/01 11:55:06;;;;;;;7.22;4.50;;;;;;;13.29;80.08;98463.53;1583753;90;25840;-64
2023/04/01 11:57:53;;;;;;;7.05;5.25;;;;;;;13.43;79.12;98470.48;1532741;93;27175;-64
2023/04/01 12:00:42;;;;;;;5.87;4.47;;;;;;;13.50;77.51;98458.36;1523667;93;27326;-64
2023/04/01 12:03:17;;;;;;;6.58;4.22;;;;;;;13.59;76.38;98465.62;1520379;94;25616;-65
2023/04/01 12:06:04;;;;;;;10.78;7.17;;;;;;;13.77;77.46;98460.36;1519557;94;25715;-65
2023/04/01 12:08:56;;;;;;;6.40;4.15;;;;;;;13.97;77.46;98463.61;1519327;94;25843;-66
2023/04/01 12:12:01;;;;;;;12.55;7.65;;;;;;;14.37;76.49;98461.20;1467703;97;27520;-64
2023/04/01 12:14:56;;;;;;;5.28;3.83;;;;;;;14.36;73.95;98463.13;1490654;96;25541;-63
2023/04/01 12:17:45;;;;;;;6.67;3.90;;;;;;;14.18;72.96;98464.94;1490223;96;25713;-63
2023/04/01 12:20:15;;;;;;;5.87;4.40;;;;;;;;;;1544140;90;26069;-63